Time;durP1;ratioP1;P1;durP2;ratioP2;P2;SDS_P1;SDS_P2;PMS_P1;PMS_P2;Temp;Humidity;BMP_temperature;BMP_pressure;BME280_temperature;BME280_humidity;BME280_pressure;Samples;Min_cycle;Max_cycle;Signal;HPM_P1;HPM_P2
2022/01/06 00:00:12;;;;;;;11.13;2.40;;;6.10;36.90;;;;;;5033019;28;20276;-70
2022/01/06 00:02:39;;;;;;;15.43;3.03;;;6.00;41.50;;;;;;5032782;28;20178;-71
2022/01/06 00:05:05;;;;;;;9.47;2.20;;;5.90;49.60;;;;;;5033034;28;20549;-70
2022/01/06 00:07:31;;;;;;;12.07;2.63;;;5.80;54.00;;;;;;5032948;28;20177;-71
2022/01/06 00:09:57;;;;;;;14.27;2.17;;;5.70;53.10;;;;;;5032579;28;20166;-72
2022/01/06 00:12:29;;;;;;;9.60;2.50;;;5.60;56.40;;;;;;5032658;28;20604;-70
2022/01/06 00:15:07;;;;;;;7.60;1.80;;;5.70;61.10;;;;;;5032982;28;20174;-71
2022/01/06 00:17:46;;;;;;;12.47;2.60;;;5.70;63.50;;;;;;5032974;28;20181;-71
2022/01/06 00:25:41;;;;;;;9.10;2.13;;;5.70;58.90;;;;;;5032566;28;20248;-72
2022/01/06 00:28:06;;;;;;;8.50;1.93;;;5.80;52.20;;;;;;5032905;28;20622;-71
2022/01/06 00:30:32;;;;;;;5.40;1.83;;;5.80;47.90;;;;;;5032875;28;20170;-71
2022/01/06 00:32:57;;;;;;;9.17;2.53;;;5.80;48.50;;;;;;5032656;28;20209;-70
2022/01/06 00:35:23;;;;;;;8.33;2.07;;;5.80;45.00;;;;;;5032729;28;20744;-70
2022/01/06 00:37:48;;;;;;;9.47;1.83;;;5.70;42.20;;;;;;5032322;28;20178;-71
2022/01/06 00:40:14;;;;;;;10.30;2.30;;;5.60;40.10;;;;;;5032623;28;20186;-71
2022/01/06 00:42:41;;;;;;;8.50;2.00;;;5.70;44.80;;;;;;5032606;28;20178;-70
2022/01/06 00:45:07;;;;;;;10.07;2.60;;;5.70;45.80;;;;;;5032751;28;20188;-70
2022/01/06 00:47:33;;;;;;;8.80;2.00;;;5.70;46.70;;;;;;5032605;28;20186;-70
2022/01/06 00:49:59;;;;;;;9.27;2.43;;;5.70;45.40;;;;;;5032492;28;20171;-70
2022/01/06 00:52:25;;;;;;;9.47;2.63;;;5.60;43.20;;;;;;5031988;28;20202;-71
2022/01/06 00:54:50;;;;;;;5.17;2.03;;;5.60;42.70;;;;;;5032638;28;20198;-71
2022/01/06 00:57:16;;;;;;;7.33;2.50;;;5.50;43.70;;;;;;5032676;28;20174;-71
2022/01/06 00:59:42;;;;;;;10.30;2.47;;;5.40;43.80;;;;;;5032725;28;20614;-70
2022/01/06 01:02:07;;;;;;;9.30;2.67;;;5.30;47.20;;;;;;5032421;28;20265;-69
2022/01/06 01:04:33;;;;;;;8.37;2.20;;;5.30;49.50;;;;;;5034529;28;20166;-69
2022/01/06 01:06:59;;;;;;;7.23;2.40;;;5.20;51.60;;;;;;5035618;28;20185;-70
2022/01/06 01:09:24;;;;;;;5.63;2.00;;;5.20;55.50;;;;;;5034720;28;20649;-70
2022/01/06 01:11:50;;;;;;;6.33;2.50;;;5.10;59.10;;;;;;5035840;28;20259;-70
2022/01/06 01:14:26;;;;;;;9.07;2.37;;;5.10;63.60;;;;;;5036073;28;20251;-69
2022/01/06 01:16:55;;;;;;;6.93;2.17;;;5.10;67.20;;;;;;5036073;28;20193;-70
2022/01/06 01:19:21;;;;;;;8.70;2.70;;;5.00;70.80;;;;;;5036038;28;20174;-70
2022/01/06 01:21:47;;;;;;;4.77;2.63;;;5.10;70.90;;;;;;5035425;28;20323;-69
2022/01/06 01:24:14;;;;;;;7.07;2.70;;;5.00;73.00;;;;;;5035680;28;20693;-71
2022/01/06 01:26:39;;;;;;;6.90;3.03;;;5.00;76.30;;;;;;5035569;28;20174;-70
2022/01/06 01:29:09;;;;;;;5.50;2.40;;;4.90;79.30;;;;;;5035852;28;20236;-70
2022/01/06 01:31:42;;;;;;;6.47;2.60;;;4.90;83.40;;;;;;5035604;28;20213;-70
2022/01/06 01:34:09;;;;;;;8.17;3.10;;;4.90;86.30;;;;;;5035305;28;20258;-70
2022/01/06 01:36:35;;;;;;;6.70;3.00;;;5.00;90.00;;;;;;5035120;28;20173;-69
2022/01/06 01:39:01;;;;;;;12.30;3.10;;;5.00;90.80;;;;;;5035672;28;20189;-69
2022/01/06 01:41:27;;;;;;;11.53;2.93;;;5.10;91.10;;;;;;5034301;28;20184;-69
2022/01/06 01:43:55;;;;;;;5.47;2.90;;;5.10;90.70;;;;;;5035515;28;20616;-69
2022/01/06 01:46:30;;;;;;;7.10;3.10;;;5.20;90.30;;;;;;5035329;28;20626;-69
2022/01/06 01:49:15;;;;;;;13.03;3.60;;;5.10;90.50;;;;;;5035120;28;20169;-69
2022/01/06 01:51:41;;;;;;;12.43;3.33;;;5.20;90.50;;;;;;5035234;28;20215;-70
2022/01/06 01:54:09;;;;;;;10.17;3.30;;;5.20;90.30;;;;;;5035274;28;20206;-70
2022/01/06 01:56:35;;;;;;;9.63;3.60;;;5.20;89.00;;;;;;5035311;28;20178;-68
2022/01/06 01:59:01;;;;;;;9.00;3.70;;;5.20;88.40;;;;;;5035158;28;20637;-70
2022/01/06 02:01:26;;;;;;;6.67;3.37;;;5.20;89.40;;;;;;5034665;28;20228;-69
2022/01/06 02:03:52;;;;;;;8.93;3.60;;;5.20;92.00;;;;;;5034262;28;20182;-69
2022/01/06 02:06:19;;;;;;;14.50;3.83;;;5.20;91.30;;;;;;5035029;28;20265;-70
2022/01/06 02:08:45;;;;;;;8.80;3.47;;;5.30;92.60;;;;;;5035029;28;20178;-70
2022/01/06 02:11:10;;;;;;;10.10;3.23;;;5.30;91.10;;;;;;5034683;28;20166;-69
2022/01/06 02:13:49;;;;;;;14.27;3.90;;;5.30;91.30;;;;;;5034852;28;20176;-69
2022/01/06 02:16:23;;;;;;;11.10;3.70;;;5.30;91.00;;;;;;5033757;28;20181;-69
2022/01/06 02:18:49;;;;;;;16.50;3.97;;;5.40;90.30;;;;;;5034511;28;20170;-70
2022/01/06 02:21:15;;;;;;;12.20;3.70;;;5.40;91.00;;;;;;5034765;28;20227;-70
2022/01/06 02:23:41;;;;;;;10.80;3.87;;;5.50;90.10;;;;;;5034480;28;20691;-70
2022/01/06 02:26:07;;;;;;;12.07;3.80;;;5.60;85.50;;;;;;5034808;28;20170;-70
2022/01/06 02:28:33;;;;;;;13.17;3.93;;;5.60;80.30;;;;;;5034493;28;20522;-69
2022/01/06 02:30:59;;;;;;;14.97;4.03;;;5.60;79.10;;;;;;5034415;28;20173;-69
2022/01/06 02:33:25;;;;;;;12.77;3.67;;;5.70;77.70;;;;;;5034028;28;20209;-70
2022/01/06 02:35:52;;;;;;;13.70;4.50;;;5.80;74.40;;;;;;5034390;28;20170;-70
2022/01/06 02:38:18;;;;;;;9.73;3.50;;;5.70;61.90;;;;;;5034427;28;20664;-69
2022/01/06 02:40:45;;;;;;;13.77;4.00;;;5.80;65.80;;;;;;5034253;28;20526;-70
2022/01/06 02:43:15;;;;;;;16.30;4.07;;;5.70;61.90;;;;;;5034184;28;20186;-69
2022/01/06 02:45:40;;;;;;;10.93;4.17;;;5.70;60.90;;;;;;5034082;28;20220;-70
2022/01/06 02:48:08;;;;;;;10.60;4.23;;;5.70;56.20;;;;;;5033876;28;20202;-71
2022/01/06 02:50:39;;;;;;;16.60;4.30;;;5.60;57.70;;;;;;5034024;28;20227;-70
2022/01/06 02:53:06;;;;;;;13.23;4.30;;;5.70;61.30;;;;;;5033748;28;20215;-70
2022/01/06 02:55:33;;;;;;;17.53;4.90;;;5.70;63.00;;;;;;5034214;28;20707;-69
2022/01/06 02:57:59;;;;;;;13.57;4.37;;;5.80;61.00;;;;;;5034332;28;20170;-70
2022/01/06 03:00:26;;;;;;;10.70;4.33;;;5.70;56.60;;;;;;5033952;28;20257;-69
2022/01/06 03:02:51;;;;;;;14.43;5.10;;;5.70;58.50;;;;;;5032104;28;20188;-70
2022/01/06 03:05:17;;;;;;;10.87;4.33;;;5.60;64.20;;;;;;5033954;28;20566;-69
2022/01/06 03:07:44;;;;;;;15.40;4.77;;;5.40;64.80;;;;;;5032566;28;20212;-69
2022/01/06 03:10:13;;;;;;;8.27;4.17;;;5.30;74.30;;;;;;5033774;28;20198;-70
2022/01/06 03:12:39;;;;;;;13.27;4.57;;;5.40;77.40;;;;;;5033540;28;20744;-70
2022/01/06 03:15:17;;;;;;;12.30;4.03;;;5.40;74.70;;;;;;5033773;28;20212;-69
2022/01/06 03:17:55;;;;;;;15.87;4.20;;;5.20;67.50;;;;;;5033147;28;20177;-70
2022/01/06 03:20:23;;;;;;;14.77;4.47;;;5.20;72.80;;;;;;5033731;28;20169;-69
2022/01/06 03:22:53;;;;;;;12.93;3.87;;;5.30;72.40;;;;;;5033294;28;20649;-70
2022/01/06 03:25:19;;;;;;;8.20;3.93;;;5.40;64.00;;;;;;5032176;28;20226;-69
2022/01/06 03:27:45;;;;;;;8.90;3.40;;;5.40;61.30;;;;;;5033343;28;20200;-70
2022/01/06 03:30:20;;;;;;;13.07;4.17;;;5.40;59.60;;;;;;5033748;28;20709;-70
2022/01/06 03:32:46;;;;;;;10.27;3.33;;;5.50;56.40;;;;;;5032784;28;20212;-70
2022/01/06 03:35:18;;;;;;;9.73;3.40;;;5.40;48.40;;;;;;5033183;28;20172;-70
2022/01/06 03:37:43;;;;;;;8.60;3.40;;;5.40;47.40;;;;;;5033318;28;20193;-70
2022/01/06 03:40:10;;;;;;;11.17;3.27;;;5.40;47.50;;;;;;5033473;28;20650;-69
2022/01/06 03:42:37;;;;;;;8.37;3.33;;;5.50;47.40;;;;;;5032784;28;20166;-70
2022/01/06 03:45:05;;;;;;;9.37;3.47;;;5.40;48.10;;;;;;5033162;28;20177;-70
2022/01/06 03:47:31;;;;;;;13.13;3.87;;;5.40;46.50;;;;;;5033100;28;20239;-70
2022/01/06 03:49:57;;;;;;;8.83;3.33;;;5.50;48.00;;;;;;5033271;28;20177;-70
2022/01/06 03:52:22;;;;;;;10.07;4.13;;;5.60;49.40;;;;;;5033041;28;20209;-69
2022/01/06 03:54:48;;;;;;;16.73;4.17;;;5.60;49.40;;;;;;5031918;28;20194;-70
2022/01/06 03:57:13;;;;;;;12.33;3.67;;;5.60;45.90;;;;;;5033350;28;20181;-70
2022/01/06 03:59:39;;;;;;;10.80;3.60;;;5.60;48.60;;;;;;5032546;28;20536;-70
2022/01/06 04:02:05;;;;;;;14.27;4.60;;;5.60;48.10;;;;;;5033064;28;20748;-70
2022/01/06 04:04:31;;;;;;;8.93;3.90;;;5.60;45.30;;;;;;5033036;28;20576;-70
2022/01/06 04:06:56;;;;;;;11.00;4.50;;;5.60;44.90;;;;;;5033015;28;20174;-69
2022/01/06 04:09:22;;;;;;;13.50;4.33;;;5.60;43.00;;;;;;5031677;28;20174;-69
2022/01/06 04:11:48;;;;;;;13.47;4.83;;;5.70;43.90;;;;;;5032751;28;20201;-70
2022/01/06 04:14:15;;;;;;;18.67;5.60;;;5.70;43.80;;;;;;5032312;28;20193;-70
2022/01/06 04:16:40;;;;;;;17.97;5.57;;;5.70;44.90;;;;;;5033043;28;20182;-69
2022/01/06 04:19:07;;;;;;;21.00;5.37;;;5.70;44.40;;;;;;5032258;28;20176;-71
2022/01/06 04:21:33;;;;;;;16.33;6.63;;;5.80;46.20;;;;;;5032707;28;20209;-70
2022/01/06 04:23:59;;;;;;;16.93;5.90;;;5.80;47.20;;;;;;5032520;28;20239;-70
2022/01/06 04:26:25;;;;;;;14.53;5.70;;;5.90;46.10;;;;;;5032733;28;20178;-70
2022/01/06 04:28:50;;;;;;;18.67;5.50;;;5.90;43.60;;;;;;5032480;28;20178;-69
2022/01/06 04:31:16;;;;;;;17.77;6.40;;;5.90;43.90;;;;;;5032523;28;20538;-69
2022/01/06 04:33:42;;;;;;;14.97;5.57;;;5.80;46.70;;;;;;5032536;28;20181;-70
2022/01/06 04:36:08;;;;;;;17.03;5.17;;;5.80;47.00;;;;;;5032666;28;20178;-70
2022/01/06 04:38:36;;;;;;;18.97;5.47;;;5.80;48.30;;;;;;5033425;28;20162;-69
2022/01/06 04:41:02;;;;;;;16.73;5.83;;;5.80;46.40;;;;;;5036223;28;20185;-69
2022/01/06 04:43:28;;;;;;;19.80;5.53;;;5.70;46.40;;;;;;5035854;28;20319;-70
2022/01/06 04:45:53;;;;;;;20.23;5.33;;;5.60;50.70;;;;;;5036259;28;20218;-70
2022/01/06 04:48:19;;;;;;;17.40;4.83;;;5.60;52.10;;;;;;5036441;28;20216;-69
2022/01/06 04:50:44;;;;;;;15.03;4.53;;;5.50;55.60;;;;;;5036251;28;20625;-69
2022/01/06 04:53:10;;;;;;;12.30;4.63;;;5.50;59.70;;;;;;5035721;28;20267;-69
2022/01/06 04:55:36;;;;;;;15.23;5.13;;;5.50;61.20;;;;;;5035874;28;20181;-69
2022/01/06 04:58:01;;;;;;;17.70;4.97;;;5.50;64.00;;;;;;5035495;28;20543;-70
2022/01/06 05:00:27;;;;;;;18.10;5.67;;;5.50;64.20;;;;;;5036312;28;20680;-69
2022/01/06 05:02:53;;;;;;;14.73;5.23;;;5.50;67.00;;;;;;5035937;28;20185;-70
2022/01/06 05:05:18;;;;;;;18.03;5.40;;;5.60;63.90;;;;;;5036106;28;20594;-70
2022/01/06 05:07:44;;;;;;;17.93;5.37;;;5.70;63.40;;;;;;5035926;28;20236;-69
2022/01/06 05:10:10;;;;;;;17.03;4.67;;;5.60;61.30;;;;;;5035915;28;20264;-71
2022/01/06 05:12:43;;;;;;;16.40;5.40;;;5.70;61.80;;;;;;5034722;28;20209;-70
2022/01/06 05:15:10;;;;;;;16.67;5.40;;;5.70;62.00;;;;;;5035815;28;20166;-70
2022/01/06 05:17:36;;;;;;;24.57;5.40;;;5.60;60.10;;;;;;5035545;28;20177;-71
2022/01/06 05:20:03;;;;;;;21.17;4.83;;;5.60;60.50;;;;;;5035692;28;20170;-70
2022/01/06 05:22:30;;;;;;;16.40;4.70;;;5.60;63.30;;;;;;5033881;28;20200;-69
2022/01/06 05:24:55;;;;;;;17.70;4.83;;;5.50;62.40;;;;;;5035505;28;20313;-70
2022/01/06 05:27:21;;;;;;;15.40;4.80;;;5.50;65.30;;;;;;5034923;28;20213;-68
2022/01/06 05:29:46;;;;;;;16.80;5.27;;;5.60;68.50;;;;;;5035111;28;20641;-69
2022/01/06 05:32:12;;;;;;;17.57;5.03;;;5.60;67.80;;;;;;5035480;28;20205;-69
2022/01/06 05:34:38;;;;;;;27.40;4.73;;;5.60;65.40;;;;;;5035563;28;20176;-69
2022/01/06 05:37:04;;;;;;;17.63;5.23;;;5.60;64.90;;;;;;5035160;28;20178;-70
2022/01/06 05:39:30;;;;;;;16.80;5.07;;;5.60;62.70;;;;;;5035065;28;20236;-70
2022/01/06 05:41:56;;;;;;;14.63;4.90;;;5.60;61.40;;;;;;5034716;28;20174;-69
2022/01/06 05:44:21;;;;;;;16.23;4.97;;;5.60;60.10;;;;;;5034902;28;20178;-69
2022/01/06 05:46:47;;;;;;;19.53;5.43;;;5.60;62.50;;;;;;5034849;28;20178;-69
2022/01/06 05:49:14;;;;;;;19.33;5.03;;;5.60;60.80;;;;;;5035377;28;20196;-70
2022/01/06 05:51:40;;;;;;;18.13;4.97;;;5.50;61.40;;;;;;5033355;28;20194;-70
2022/01/06 05:54:06;;;;;;;22.03;4.83;;;5.50;62.70;;;;;;5034614;28;20197;-69
2022/01/06 05:56:31;;;;;;;18.03;5.30;;;5.50;62.90;;;;;;5034315;28;20652;-69
2022/01/06 05:58:57;;;;;;;16.13;4.90;;;5.50;64.60;;;;;;5034787;28;20530;-69
2022/01/06 06:01:23;;;;;;;21.57;5.70;;;5.50;66.50;;;;;;5033505;28;20579;-69
2022/01/06 06:03:49;;;;;;;16.63;5.67;;;5.50;67.70;;;;;;5034292;28;20693;-70
2022/01/06 06:06:15;;;;;;;22.73;5.13;;;5.40;66.10;;;;;;5035106;28;20299;-70
2022/01/06 06:08:40;;;;;;;18.87;5.40;;;5.40;66.70;;;;;;5034567;28;20234;-70
2022/01/06 06:11:06;;;;;;;16.03;5.80;;;5.40;65.60;;;;;;5033879;28;20177;-70
2022/01/06 06:13:32;;;;;;;26.80;5.30;;;5.30;61.30;;;;;;5034360;28;20350;-70
2022/01/06 06:15:58;;;;;;;24.57;6.20;;;5.30;65.00;;;;;;5034489;28;20205;-70
2022/01/06 06:18:24;;;;;;;18.00;5.70;;;5.20;66.00;;;;;;5034521;28;20629;-69
2022/01/06 06:20:50;;;;;;;17.80;4.90;;;5.10;69.70;;;;;;5032829;28;20170;-70
2022/01/06 06:23:15;;;;;;;16.07;4.60;;;5.10;72.10;;;;;;5033895;28;20189;-71
2022/01/06 06:25:41;;;;;;;19.53;5.40;;;5.00;74.70;;;;;;5033905;28;20296;-70
2022/01/06 06:28:08;;;;;;;15.17;5.10;;;5.00;75.90;;;;;;5033628;28;20185;-69
2022/01/06 06:30:34;;;;;;;16.17;5.73;;;5.00;75.60;;;;;;5034311;28;20170;-70
2022/01/06 06:33:01;;;;;;;20.43;5.53;;;5.00;76.30;;;;;;5034161;28;20264;-70
2022/01/06 06:35:28;;;;;;;23.83;5.90;;;5.00;77.40;;;;;;5033677;28;20181;-70
2022/01/06 06:37:53;;;;;;;14.60;5.57;;;5.00;76.90;;;;;;5033978;28;20307;-70
2022/01/06 06:40:22;;;;;;;19.77;5.63;;;5.00;77.70;;;;;;5033475;28;20258;-70
2022/01/06 06:42:48;;;;;;;23.77;5.77;;;5.10;78.80;;;;;;5033165;28;20182;-69
2022/01/06 06:45:15;;;;;;;19.17;6.40;;;5.20;80.50;;;;;;5032897;28;20200;-71
2022/01/06 06:47:41;;;;;;;18.40;5.80;;;5.20;75.70;;;;;;5033745;28;20225;-70
2022/01/06 06:50:07;;;;;;;22.30;5.17;;;5.20;75.60;;;;;;5033078;28;20681;-69
2022/01/06 06:52:33;;;;;;;22.63;5.97;;;5.20;78.20;;;;;;5033158;28;20324;-71
2022/01/06 06:54:58;;;;;;;15.10;5.67;;;5.10;78.60;;;;;;5032968;28;20208;-70
2022/01/06 06:57:24;;;;;;;19.53;6.00;;;5.20;78.60;;;;;;5033248;28;20649;-70
2022/01/06 06:59:49;;;;;;;18.87;6.03;;;5.20;78.50;;;;;;5033342;28;20177;-70
2022/01/06 07:02:15;;;;;;;16.90;5.70;;;5.20;76.60;;;;;;5032729;28;20177;-70
2022/01/06 07:04:41;;;;;;;18.17;5.60;;;5.00;72.70;;;;;;5032870;28;20253;-70
2022/01/06 07:07:06;;;;;;;19.43;5.73;;;5.00;76.30;;;;;;5033283;28;20268;-70
2022/01/06 07:09:32;;;;;;;22.33;6.03;;;5.00;79.30;;;;;;5032837;28;20269;-70
2022/01/06 07:11:57;;;;;;;23.17;6.57;;;5.00;80.50;;;;;;5031501;28;20214;-70
2022/01/06 07:14:23;;;;;;;24.20;6.40;;;5.10;78.90;;;;;;5032850;28;20605;-70
2022/01/06 07:16:49;;;;;;;16.97;5.80;;;4.90;80.90;;;;;;5032949;28;20174;-70
2022/01/06 07:19:14;;;;;;;17.40;5.30;;;4.90;82.30;;;;;;5032904;28;20630;-70
2022/01/06 07:21:40;;;;;;;18.87;6.13;;;4.90;85.30;;;;;;5032886;28;20208;-71
2022/01/06 07:24:06;;;;;;;15.67;5.70;;;4.90;85.40;;;;;;5031853;28;20585;-70
2022/01/06 07:26:31;;;;;;;17.67;5.97;;;4.90;83.60;;;;;;5031220;28;20189;-71
2022/01/06 07:28:57;;;;;;;23.80;5.93;;;5.00;82.70;;;;;;5033063;28;20173;-70
2022/01/06 07:31:23;;;;;;;25.63;6.10;;;5.00;81.70;;;;;;5033077;28;20178;-71
2022/01/06 07:33:48;;;;;;;20.33;5.80;;;5.00;79.20;;;;;;5032474;28;20236;-70
2022/01/06 07:36:14;;;;;;;17.20;5.73;;;5.00;75.60;;;;;;5032850;28;20690;-69
2022/01/06 07:38:40;;;;;;;17.37;5.57;;;5.00;76.30;;;;;;5032162;28;20174;-70
2022/01/06 07:41:05;;;;;;;15.30;6.30;;;4.90;77.70;;;;;;5032694;28;20178;-71
2022/01/06 07:43:31;;;;;;;16.00;6.10;;;5.00;77.50;;;;;;5032587;28;20653;-70
2022/01/06 07:45:56;;;;;;;18.53;6.03;;;5.00;75.80;;;;;;5032850;28;20265;-70
2022/01/06 07:48:29;;;;;;;25.20;6.43;;;5.00;73.50;;;;;;5032368;28;20240;-69
2022/01/06 07:50:55;;;;;;;17.37;6.47;;;5.00;75.00;;;;;;5032294;28;20264;-70
2022/01/06 07:53:20;;;;;;;16.03;6.37;;;5.00;78.40;;;;;;5031789;28;20296;-70
2022/01/06 07:55:46;;;;;;;20.47;6.57;;;4.90;81.00;;;;;;5031871;28;20601;-69
2022/01/06 07:58:12;;;;;;;22.20;6.77;;;4.90;83.30;;;;;;5031999;28;20656;-69
2022/01/06 08:00:37;;;;;;;22.40;6.07;;;4.90;83.80;;;;;;5032424;28;20170;-70
2022/01/06 08:03:03;;;;;;;17.70;6.53;;;5.00;84.50;;;;;;5032000;28;20245;-70
2022/01/06 08:05:29;;;;;;;18.13;5.83;;;5.00;83.70;;;;;;5032077;28;20252;-70
2022/01/06 08:07:55;;;;;;;19.93;6.43;;;5.10;83.80;;;;;;5033050;28;20178;-70
2022/01/06 08:10:22;;;;;;;17.77;6.13;;;5.10;79.60;;;;;;5032454;28;20192;-70
2022/01/06 08:12:47;;;;;;;18.40;6.47;;;5.20;81.10;;;;;;5032497;28;20616;-70
2022/01/06 08:15:14;;;;;;;11.73;6.00;;;5.30;77.20;;;;;;5036053;28;20178;-70
2022/01/06 08:17:40;;;;;;;19.67;5.93;;;5.20;72.00;;;;;;5035267;28;20181;-70
2022/01/06 08:20:10;;;;;;;16.03;6.07;;;5.20;68.50;;;;;;5036521;28;20182;-70
2022/01/06 08:22:36;;;;;;;22.67;5.90;;;5.20;72.60;;;;;;5035744;28;20173;-70
2022/01/06 08:25:07;;;;;;;13.50;5.97;;;5.30;78.30;;;;;;5036229;28;20249;-70
2022/01/06 08:27:33;;;;;;;14.67;5.40;;;5.30;77.70;;;;;;5036352;28;20174;-70
2022/01/06 08:30:00;;;;;;;25.40;5.93;;;5.40;72.00;;;;;;5036084;28;20180;-69
2022/01/06 08:32:26;;;;;;;23.23;6.67;;;5.40;67.50;;;;;;5035102;28;20209;-70
2022/01/06 08:34:51;;;;;;;16.67;6.13;;;5.50;67.30;;;;;;5035845;28;20177;-70
2022/01/06 08:37:18;;;;;;;18.47;6.03;;;5.60;65.90;;;;;;5035660;28;20178;-70
2022/01/06 08:39:43;;;;;;;16.20;6.03;;;5.80;61.40;;;;;;5036039;28;20170;-70
2022/01/06 08:42:12;;;;;;;19.90;6.10;;;5.90;53.20;;;;;;5035984;28;20177;-69
2022/01/06 08:44:39;;;;;;;17.43;6.27;;;5.90;48.70;;;;;;5036038;28;20173;-70
2022/01/06 08:47:05;;;;;;;19.57;6.83;;;6.00;48.20;;;;;;5035392;28;20162;-70
2022/01/06 08:49:31;;;;;;;18.87;5.90;;;6.00;44.60;;;;;;5035874;28;20233;-69
2022/01/06 08:51:57;;;;;;;20.67;5.87;;;6.10;34.50;;;;;;5035160;28;20275;-71
2022/01/06 08:54:22;;;;;;;14.83;6.20;;;6.20;31.80;;;;;;5035498;28;20221;-70
2022/01/06 08:56:48;;;;;;;19.33;6.13;;;6.10;29.60;;;;;;5035877;28;20252;-71
2022/01/06 08:59:13;;;;;;;22.03;6.07;;;6.20;32.80;;;;;;5035244;28;20169;-70
2022/01/06 09:01:39;;;;;;;13.20;5.50;;;6.30;31.40;;;;;;5034897;28;20228;-70
2022/01/06 09:04:06;;;;;;;18.83;5.67;;;6.30;24.50;;;;;;5035339;28;20681;-70
2022/01/06 09:06:32;;;;;;;17.50;6.00;;;6.40;25.40;;;;;;5035497;28;20174;-69
2022/01/06 09:08:57;;;;;;;15.57;5.47;;;6.60;23.10;;;;;;5035528;28;20530;-70
2022/01/06 09:11:23;;;;;;;18.50;5.77;;;6.80;13.70;;;;;;5035481;28;20216;-70
2022/01/06 09:13:49;;;;;;;21.07;6.20;;;6.90;5.90;;;;;;5035192;28;20250;-70
2022/01/06 09:16:14;;;;;;;16.77;6.37;;;7.00;3.60;;;;;;5035339;28;20213;-70
2022/01/06 09:18:41;;;;;;;15.13;5.63;;;7.10;1.00;;;;;;5034594;28;20212;-69
2022/01/06 09:21:07;;;;;;;17.20;5.37;;;7.20;1.00;;;;;;5035147;28;20456;-69
2022/01/06 09:23:33;;;;;;;17.07;4.90;;;7.80;1.00;;;;;;5034868;28;20293;-69
2022/01/06 09:25:59;;;;;;;13.93;4.87;;;8.30;1.00;;;;;;5034860;28;20416;-69
2022/01/06 09:28:25;;;;;;;9.53;4.30;;;8.80;1.00;;;;;;5034679;28;20239;-69
2022/01/06 09:30:51;;;;;;;13.67;5.13;;;9.20;1.00;;;;;;5034923;28;20182;-70
2022/01/06 09:33:18;;;;;;;11.17;4.17;;;9.20;1.00;;;;;;5034295;28;20213;-70
2022/01/06 09:35:45;;;;;;;11.90;4.50;;;9.40;99.90;;;;;;5034744;28;20182;-70
2022/01/06 09:38:12;;;;;;;10.37;4.60;;;9.20;1.00;;;;;;5034633;28;20182;-70
2022/01/06 09:40:41;;;;;;;14.03;4.73;;;8.90;1.00;;;;;;5035210;28;20193;-70
2022/01/06 09:43:07;;;;;;;10.60;4.60;;;8.60;1.00;;;;;;5034626;28;20170;-70
2022/01/06 09:45:35;;;;;;;13.13;4.80;;;8.50;1.00;;;;;;5034575;28;20637;-70
2022/01/06 09:48:00;;;;;;;11.80;4.63;;;8.40;1.00;;;;;;5032851;28;20260;-70
2022/01/06 09:50:27;;;;;;;18.23;4.97;;;8.30;1.00;;;;;;5034211;28;20728;-71
2022/01/06 09:52:52;;;;;;;10.67;4.80;;;8.10;1.00;;;;;;5034718;28;20558;-70
2022/01/06 09:55:19;;;;;;;14.97;5.30;;;8.20;1.00;;;;;;5034146;28;20178;-71
2022/01/06 09:58:00;;;;;;;13.27;4.67;;;8.20;1.00;;;;;;5034739;28;20174;-70
2022/01/06 10:00:28;;;;;;;17.47;5.07;;;8.10;1.00;;;;;;5034227;28;20176;-70
2022/01/06 10:02:57;;;;;;;14.20;4.90;;;7.90;1.00;;;;;;5033777;28;20193;-70
2022/01/06 10:05:24;;;;;;;15.83;5.33;;;7.80;1.00;;;;;;5034853;28;20257;-70
2022/01/06 10:07:50;;;;;;;14.10;5.93;;;7.70;1.00;;;;;;5034591;28;20174;-70
2022/01/06 10:10:16;;;;;;;15.57;6.10;;;7.60;1.00;;;;;;5033825;28;20174;-71
2022/01/06 10:12:42;;;;;;;14.27;6.37;;;7.60;1.00;;;;;;5034286;28;20210;-71
2022/01/06 10:15:17;;;;;;;13.90;6.40;;;7.70;1.00;;;;;;5034089;28;20198;-71
2022/01/06 10:17:43;;;;;;;20.00;7.33;;;7.80;1.00;;;;;;5033536;28;20177;-71
2022/01/06 10:20:14;;;;;;;18.30;6.47;;;7.90;1.00;;;;;;5034208;28;20264;-71
2022/01/06 10:22:44;;;;;;;22.07;7.30;;;7.70;1.00;;;;;;5034493;28;20269;-71
2022/01/06 10:25:11;;;;;;;16.90;7.47;;;7.60;1.00;;;;;;5034112;28;20225;-71
2022/01/06 10:27:38;;;;;;;13.67;7.27;;;7.80;1.00;;;;;;5032702;28;20188;-71
2022/01/06 10:30:08;;;;;;;19.00;7.37;;;7.90;1.00;;;;;;5033669;28;20205;-70
2022/01/06 10:32:34;;;;;;;16.57;7.23;;;7.70;1.00;;;;;;5032913;28;20220;-71
2022/01/06 10:35:03;;;;;;;20.53;7.07;;;7.60;1.00;;;;;;5033685;28;20170;-70
2022/01/06 10:37:38;;;;;;;19.03;7.40;;;7.60;1.00;;;;;;5033641;28;20185;-71
2022/01/06 10:40:06;;;;;;;20.07;7.90;;;7.70;1.00;;;;;;5033950;28;20201;-69
2022/01/06 10:42:34;;;;;;;17.40;7.23;;;7.80;1.00;;;;;;5033489;28;20642;-70
2022/01/06 10:45:09;;;;;;;24.37;9.30;;;7.90;1.00;;;;;;5033430;28;20182;-71
2022/01/06 10:47:44;;;;;;;15.27;7.77;;;7.90;1.00;;;;;;5033166;28;20166;-70
2022/01/06 10:50:20;;;;;;;15.20;8.33;;;8.10;1.00;;;;;;5033591;28;20173;-70
2022/01/06 10:52:47;;;;;;;19.23;8.73;;;8.20;1.00;;;;;;5033394;28;20205;-70
2022/01/06 10:55:23;;;;;;;19.57;8.60;;;8.10;1.00;;;;;;5033602;28;20253;-71
2022/01/06 10:58:05;;;;;;;16.70;8.77;;;8.00;1.00;;;;;;5033616;28;20243;-70
2022/01/06 11:00:41;;;;;;;19.73;8.70;;;8.10;1.00;;;;;;5033268;28;20169;-70
2022/01/06 11:03:11;;;;;;;16.37;8.27;;;8.10;1.00;;;;;;5033214;28;20277;-70
2022/01/06 11:05:40;;;;;;;19.20;8.37;;;8.40;1.00;;;;;;5033133;28;20173;-70
2022/01/06 11:08:07;;;;;;;25.30;8.40;;;8.20;1.00;;;;;;5033756;28;20182;-70
2022/01/06 11:10:36;;;;;;;19.63;8.40;;;8.20;1.00;;;;;;5032771;28;20771;-70
2022/01/06 11:13:04;;;;;;;18.40;7.77;;;8.20;1.00;;;;;;5032751;28;20243;-71
2022/01/06 11:15:30;;;;;;;20.50;7.80;;;8.30;1.00;;;;;;5032928;28;20200;-70
2022/01/06 11:17:56;;;;;;;22.53;8.80;;;8.60;1.00;;;;;;5033049;28;20181;-70
2022/01/06 11:20:24;;;;;;;20.10;8.10;;;8.70;1.00;;;;;;5032517;28;20170;-70
2022/01/06 11:22:53;;;;;;;20.40;8.00;;;8.60;1.00;;;;;;5032939;28;20170;-71
2022/01/06 11:25:28;;;;;;;21.63;8.53;;;8.90;1.00;;;;;;5032800;28;20572;-71
2022/01/06 11:28:05;;;;;;;18.67;7.93;;;9.00;1.00;;;;;;5032612;28;20174;-70
2022/01/06 11:30:41;;;;;;;15.60;7.60;;;9.40;1.00;;;;;;5031925;28;20170;-70
2022/01/06 11:33:07;;;;;;;21.50;8.20;;;9.80;99.90;;;;;;5032583;28;20241;-70
2022/01/06 11:35:47;;;;;;;14.10;7.80;;;10.20;1.00;;;;;;5032837;28;20178;-71
2022/01/06 11:38:15;;;;;;;17.30;7.60;;;10.70;1.00;;;;;;5033045;28;20227;-70
2022/01/06 11:40:41;;;;;;;12.83;8.23;;;10.90;99.90;;;;;;5032590;28;20596;-70
2022/01/06 11:43:07;;;;;;;16.30;9.20;;;11.30;32.70;;;;;;5032661;28;20257;-70
2022/01/06 11:45:33;;;;;;;19.63;9.50;;;11.60;99.90;;;;;;5032444;28;20170;-71
2022/01/06 11:48:09;;;;;;;20.63;9.60;;;11.80;99.90;;;;;;5032285;28;20626;-70
2022/01/06 11:50:44;;;;;;;20.90;9.53;;;11.80;99.90;;;;;;5032658;28;20256;-70
2022/01/06 11:53:10;;;;;;;16.20;9.63;;;11.70;99.90;;;;;;5032418;28;20208;-70
2022/01/06 11:55:39;;;;;;;22.30;11.00;;;12.00;99.90;;;;;;5032181;28;20253;-70
2022/01/06 11:58:19;;;;;;;27.33;14.87;;;12.40;99.90;;;;;;5032139;28;20280;-70
2022/01/06 12:01:05;;;;;;;40.97;25.73;;;12.30;99.80;;;;;;5032416;28;20169;-70
2022/01/06 12:03:46;;;;;;;19.53;11.37;;;11.60;99.80;;;;;;5032219;28;20178;-70
2022/01/06 12:06:33;;;;;;;21.23;15.30;;;11.00;99.90;;;;;;5032436;28;20250;-70
2022/01/06 12:08:59;;;;;;;38.87;33.30;;;11.00;99.90;;;;;;5031694;28;20173;-69
2022/01/06 12:11:29;;;;;;;25.20;11.80;;;10.40;99.90;;;;;;5031910;28;20219;-70
2022/01/06 12:13:56;;;;;;;19.03;10.80;;;10.60;99.90;;;;;;5031572;28;20224;-69
2022/01/06 12:16:34;;;;;;;26.97;17.87;;;10.40;99.90;;;;;;5032461;28;20181;-69
2022/01/06 12:19:11;;;;;;;23.30;12.90;;;10.10;99.90;;;;;;5031884;28;20590;-70
2022/01/06 12:21:37;;;;;;;19.83;11.57;;;10.00;99.90;;;;;;5032467;28;20173;-70
2022/01/06 12:24:05;;;;;;;20.40;10.97;;;9.60;99.90;;;;;;5032007;28;20625;-70
2022/01/06 12:26:32;;;;;;;22.67;11.17;;;9.60;99.90;;;;;;5032013;28;20376;-72
2022/01/06 12:28:58;;;;;;;25.97;11.83;;;9.70;99.90;;;;;;5031945;28;20178;-71
2022/01/06 12:31:29;;;;;;;20.30;11.07;;;9.80;99.90;;;;;;5031658;28;20170;-71
2022/01/06 12:33:59;;;;;;;22.17;13.23;;;9.80;99.90;;;;;;5031890;28;20218;-70
2022/01/06 12:36:26;;;;;;;20.43;13.43;;;9.80;99.90;;;;;;5031956;28;20506;-71
2022/01/06 12:38:52;;;;;;;21.93;12.33;;;9.70;99.90;;;;;;5032072;28;20170;-70
2022/01/06 12:41:29;;;;;;;23.50;13.20;;;9.70;99.90;;;;;;5031697;28;20178;-70
2022/01/06 12:43:57;;;;;;;24.67;11.60;;;9.60;99.90;;;;;;5031777;28;20201;-71
2022/01/06 12:46:29;;;;;;;20.93;12.00;;;9.50;99.90;;;;;;5032092;28;20712;-69
2022/01/06 12:48:55;;;;;;;24.23;12.77;;;9.50;99.90;;;;;;5030532;28;20189;-69
2022/01/06 12:51:27;;;;;;;33.67;21.43;;;9.20;99.90;;;;;;5031935;28;20170;-69
2022/01/06 12:54:22;;;;;;;29.70;13.97;;;8.80;99.90;;;;;;5031683;28;20218;-70